createdAt,value
2018-11-05T00:00:18.345Z,0
2018-11-05T00:01:18.718Z,0
2018-11-05T00:02:39.680Z,0
2018-11-05T00:03:40.316Z,0
2018-11-05T00:04:39.930Z,0
2018-11-05T00:05:40.265Z,0
2018-11-05T00:06:39.722Z,0
2018-11-05T00:08:00.969Z,0
2018-11-05T00:09:01.306Z,0
2018-11-05T00:10:22.654Z,0
2018-11-05T00:11:23.229Z,0
2018-11-05T00:12:43.434Z,0
2018-11-05T00:13:43.763Z,0
2018-11-05T00:15:05.015Z,0
2018-11-05T00:16:05.193Z,0
2018-11-05T00:17:05.614Z,0
2018-11-05T00:18:05.163Z,0
2018-11-05T00:19:05.459Z,0
2018-11-05T00:20:05.857Z,0
2018-11-05T00:21:05.300Z,0
2018-11-05T00:22:05.464Z,0
2018-11-05T00:23:05.757Z,0
2018-11-05T00:24:05.014Z,0
2018-11-05T00:25:05.405Z,0
2018-11-05T00:26:05.796Z,0
2018-11-05T00:27:05.936Z,0
2018-11-05T00:28:05.342Z,0
2018-11-05T00:29:05.459Z,0
2018-11-05T00:30:05.854Z,0
2018-11-05T00:31:05.545Z,0
2018-11-05T00:32:06.084Z,0
2018-11-05T00:33:05.471Z,0
2018-11-05T00:34:05.860Z,0
2018-11-05T00:35:05.219Z,0
2018-11-05T00:36:28.793Z,0
2018-11-05T00:37:50.342Z,0
2018-11-05T00:38:50.802Z,0
2018-11-05T00:39:51.071Z,0
2018-11-05T00:40:50.448Z,0
2018-11-05T00:41:50.672Z,0
2018-11-05T00:42:51.109Z,0
2018-11-05T00:43:50.376Z,0
2018-11-05T00:44:50.777Z,0
2018-11-05T00:45:51.171Z,0
2018-11-05T00:46:50.372Z,0
2018-11-05T00:47:50.587Z,0
2018-11-05T00:48:50.836Z,0
2018-11-05T00:49:51.186Z,0
2018-11-05T00:50:50.521Z,0
2018-11-05T00:52:12.172Z,0
2018-11-05T00:53:12.488Z,0
2018-11-05T00:54:12.699Z,0
2018-11-05T00:55:12.080Z,0
2018-11-05T00:56:12.376Z,0
2018-11-05T00:57:12.637Z,0
2018-11-05T00:58:12.807Z,0
2018-11-05T00:59:13.024Z,0
2018-11-05T01:00:12.482Z,0
2018-11-05T01:01:12.657Z,0
2018-11-05T01:02:15.606Z,0
2018-11-05T01:03:12.746Z,0
2018-11-05T01:04:37.226Z,0
2018-11-05T01:06:40.947Z,0
2018-11-05T01:07:41.428Z,0
2018-11-05T01:08:40.988Z,0
2018-11-05T01:09:41.193Z,0
2018-11-05T01:10:41.240Z,0
2018-11-05T01:11:41.574Z,0
2018-11-05T01:12:41.842Z,0
2018-11-05T01:13:41.177Z,0
2018-11-05T01:14:41.512Z,0
2018-11-05T01:16:23.936Z,0
2018-11-05T01:17:24.358Z,0
2018-11-05T01:18:24.687Z,0
2018-11-05T01:19:23.983Z,0
2018-11-05T01:20:24.475Z,0
2018-11-05T01:21:24.555Z,0
2018-11-05T01:22:23.973Z,0
2018-11-05T01:23:24.181Z,0
2018-11-05T01:24:24.571Z,0
2018-11-05T01:25:24.687Z,0
2018-11-05T01:26:23.923Z,0
2018-11-05T01:27:24.263Z,0
2018-11-05T01:28:24.531Z,0
2018-11-05T01:29:45.808Z,0
2018-11-05T01:30:45.954Z,0
2018-11-05T01:31:46.363Z,0
2018-11-05T01:32:45.905Z,0
2018-11-05T01:33:46.144Z,0
2018-11-05T01:34:46.646Z,0
2018-11-05T01:35:45.849Z,0
2018-11-05T01:36:46.060Z,0
2018-11-05T01:37:46.189Z,0
2018-11-05T01:38:46.356Z,0
2018-11-05T01:39:46.570Z,0
2018-11-05T01:40:45.821Z,0
2018-11-05T01:41:46.277Z,0
2018-11-05T01:42:46.647Z,0
2018-11-05T01:43:46.017Z,0
2018-11-05T01:45:07.423Z,0
2018-11-05T01:46:07.617Z,0
2018-11-05T01:47:08.016Z,0
2018-11-05T01:48:08.449Z,0
2018-11-05T01:49:07.649Z,0
2018-11-05T01:50:07.975Z,0
2018-11-05T01:51:08.315Z,0
2018-11-05T01:52:28.775Z,0
2018-11-05T01:53:29.167Z,0
2018-11-05T01:54:29.420Z,0
2018-11-05T01:55:29.678Z,0
2018-11-05T01:56:29.050Z,0
2018-11-05T01:57:29.346Z,0
2018-11-05T01:58:29.601Z,0
2018-11-05T01:59:29.218Z,0
2018-11-05T02:00:29.479Z,0
2018-11-05T02:01:28.946Z,0
2018-11-05T02:02:29.416Z,0
2018-11-05T02:03:29.661Z,0
2018-11-05T02:04:28.915Z,0
2018-11-05T02:05:29.311Z,0
2018-11-05T02:06:50.614Z,0
2018-11-05T02:07:50.938Z,0
2018-11-05T02:08:51.103Z,0
2018-11-05T02:10:11.580Z,0
2018-11-05T02:11:11.939Z,0
2018-11-05T02:12:12.347Z,0
2018-11-05T02:13:11.890Z,0
2018-11-05T02:14:12.238Z,0
2018-11-05T02:15:24.180Z,0
2018-11-05T02:16:32.593Z,0
2018-11-05T02:17:32.898Z,0
2018-11-05T02:18:33.122Z,0
2018-11-05T02:19:53.371Z,0
2018-11-05T02:20:53.859Z,0
2018-11-05T02:21:54.195Z,0
2018-11-05T02:22:53.502Z,0
2018-11-05T02:23:53.829Z,0
2018-11-05T02:24:54.003Z,0
2018-11-05T02:25:53.220Z,0
2018-11-05T02:26:53.629Z,0
2018-11-05T02:27:54.095Z,0
2018-11-05T02:28:53.342Z,0
2018-11-05T02:29:53.790Z,0
2018-11-05T02:30:54.070Z,0
2018-11-05T02:31:53.327Z,0
2018-11-05T02:32:53.716Z,0
2018-11-05T02:33:54.179Z,0
2018-11-05T02:35:14.417Z,0
2018-11-05T02:36:14.620Z,0
2018-11-05T02:37:14.886Z,0
2018-11-05T02:38:15.220Z,0
2018-11-05T02:39:14.497Z,0
2018-11-05T02:40:14.862Z,0
2018-11-05T02:41:15.112Z,0
2018-11-05T02:42:15.283Z,0
2018-11-05T02:43:14.610Z,0
2018-11-05T02:44:35.945Z,0
2018-11-05T02:45:36.304Z,0
2018-11-05T02:46:57.721Z,0
2018-11-05T02:47:58.048Z,0
2018-11-05T02:48:58.432Z,0
2018-11-05T02:49:57.786Z,0
2018-11-05T02:50:58.084Z,0
2018-11-05T02:51:58.259Z,0
2018-11-05T02:52:58.821Z,0
2018-11-05T02:53:58.215Z,0
2018-11-05T02:54:58.454Z,0
2018-11-05T02:55:57.826Z,0
2018-11-05T02:56:58.399Z,0
2018-11-05T02:58:19.570Z,0
2018-11-05T02:59:19.685Z,0
2018-11-05T03:00:20.056Z,0
2018-11-05T03:01:20.281Z,0
2018-11-05T03:02:40.455Z,0
2018-11-05T03:03:40.856Z,0
2018-11-05T03:04:41.304Z,0
2018-11-05T03:05:41.475Z,0
2018-11-05T03:06:41.168Z,0
2018-11-05T03:07:40.467Z,0
2018-11-05T03:08:40.832Z,0
2018-11-05T03:09:41.113Z,0
2018-11-05T03:10:40.623Z,0
2018-11-05T03:11:41.055Z,0
2018-11-05T03:13:01.286Z,0
2018-11-05T03:14:01.667Z,0
2018-11-05T03:15:01.929Z,0
2018-11-05T03:16:02.043Z,0
2018-11-05T03:17:02.437Z,0
2018-11-05T03:18:01.749Z,0
2018-11-05T03:19:22.909Z,0
2018-11-05T03:20:23.372Z,0
2018-11-05T03:21:23.413Z,0
2018-11-05T03:22:23.738Z,0
2018-11-05T03:23:23.117Z,0
2018-11-05T03:24:23.293Z,0
2018-11-05T03:25:23.756Z,0
2018-11-05T03:26:23.155Z,0
2018-11-05T03:27:23.495Z,0
2018-11-05T03:28:44.535Z,0
2018-11-05T03:29:44.739Z,0
2018-11-05T03:30:45.101Z,0
2018-11-05T03:31:45.447Z,0
2018-11-05T03:32:44.779Z,0
2018-11-05T03:33:45.119Z,0
2018-11-05T03:35:08.598Z,0
2018-11-05T03:36:29.927Z,0
2018-11-05T03:37:30.221Z,0
2018-11-05T03:38:30.420Z,0
2018-11-05T03:39:51.501Z,0
2018-11-05T03:40:51.691Z,0
2018-11-05T03:41:52.004Z,0
2018-11-05T03:42:52.490Z,0
2018-11-05T03:44:12.824Z,0
2018-11-05T03:45:34.389Z,0
2018-11-05T03:46:34.434Z,0
2018-11-05T03:47:34.761Z,0
2018-11-05T03:48:35.029Z,0
2018-11-05T03:49:34.466Z,0
2018-11-05T03:50:55.899Z,0
2018-11-05T03:51:56.230Z,0
2018-11-05T03:52:56.702Z,0
2018-11-05T03:53:56.089Z,0
2018-11-05T03:54:56.332Z,0
2018-11-05T03:55:56.672Z,0
2018-11-05T03:57:16.800Z,0
2018-11-05T03:58:17.274Z,0
2018-11-05T03:59:17.628Z,0
2018-11-05T04:00:17.065Z,0
2018-11-05T04:01:17.455Z,0
2018-11-05T04:02:17.851Z,0
2018-11-05T04:03:17.334Z,0
2018-11-05T04:04:17.704Z,0
2018-11-05T04:05:16.865Z,0
2018-11-05T04:06:17.162Z,0
2018-11-05T04:07:17.654Z,0
2018-11-05T04:08:17.025Z,0
2018-11-05T04:09:17.352Z,0
2018-11-05T04:10:17.810Z,0
2018-11-05T04:11:17.116Z,0
2018-11-05T04:12:17.547Z,0
2018-11-05T04:13:16.903Z,0
2018-11-05T04:14:17.139Z,0
2018-11-05T04:15:38.799Z,0
2018-11-05T04:17:02.432Z,0
2018-11-05T04:18:02.917Z,0
2018-11-05T04:19:24.159Z,0
2018-11-05T04:20:24.668Z,0
2018-11-05T04:21:24.941Z,0
2018-11-05T04:22:24.221Z,0
2018-11-05T04:23:24.471Z,0
2018-11-05T04:24:24.812Z,0
2018-11-05T04:25:24.188Z,0
2018-11-05T04:26:24.759Z,0
2018-11-05T04:27:25.021Z,0
2018-11-05T04:28:45.462Z,0
2018-11-05T04:30:06.689Z,0
2018-11-05T04:31:06.913Z,0
2018-11-05T04:32:30.629Z,0
2018-11-05T04:33:31.073Z,0
2018-11-05T04:34:31.530Z,0
2018-11-05T04:35:31.041Z,0
2018-11-05T04:36:33.216Z,0
2018-11-05T04:37:30.737Z,0
2018-11-05T04:38:30.989Z,0
2018-11-05T04:39:52.357Z,0
2018-11-05T04:40:52.719Z,0
2018-11-05T04:41:53.258Z,0
2018-11-05T04:42:52.647Z,0
2018-11-05T04:43:52.910Z,0
2018-11-05T04:44:52.433Z,0
2018-11-05T04:46:13.490Z,0
2018-11-05T04:47:37.146Z,0
2018-11-05T04:48:37.405Z,0
2018-11-05T04:49:37.768Z,0
2018-11-05T04:50:37.099Z,0
2018-11-05T04:51:37.608Z,0
2018-11-05T04:52:59.318Z,0
2018-11-05T04:53:59.581Z,0
2018-11-05T04:55:00.262Z,0
2018-11-05T04:56:01.617Z,0
2018-11-05T04:57:00.531Z,0
2018-11-05T04:57:59.752Z,0
2018-11-05T04:59:00.121Z,0
2018-11-05T04:59:59.524Z,0
2018-11-05T05:00:59.783Z,0
2018-11-05T05:02:00.341Z,0
2018-11-05T05:02:59.717Z,0
2018-11-05T05:04:21.441Z,0
2018-11-05T05:05:21.935Z,0
2018-11-05T05:06:22.431Z,0
2018-11-05T05:07:21.951Z,0
2018-11-05T05:08:43.332Z,0
2018-11-05T05:09:43.642Z,0
2018-11-05T05:11:05.271Z,0
2018-11-05T05:12:05.588Z,0
2018-11-05T05:13:06.186Z,0
2018-11-05T05:14:05.681Z,0
2018-11-05T05:15:06.189Z,0
2018-11-05T05:16:05.496Z,0
2018-11-05T05:17:27.574Z,0
2018-11-05T05:18:27.909Z,0
2018-11-05T05:19:28.395Z,0
2018-11-05T05:20:27.753Z,0
2018-11-05T05:21:27.985Z,0
2018-11-05T05:22:28.179Z,0
2018-11-05T05:23:27.874Z,0
2018-11-05T05:24:28.177Z,0
2018-11-05T05:25:28.382Z,0
2018-11-05T05:26:27.656Z,0
2018-11-05T05:27:28.025Z,0
2018-11-05T05:28:28.240Z,0
2018-11-05T05:29:30.609Z,0
2018-11-05T05:30:27.780Z,0
2018-11-05T05:31:27.862Z,0
2018-11-05T05:32:28.178Z,0
2018-11-05T05:33:27.698Z,0
2018-11-05T05:34:28.220Z,0
2018-11-05T05:35:28.461Z,0
2018-11-05T05:36:27.916Z,0
2018-11-05T05:37:28.413Z,0
2018-11-05T05:38:27.875Z,0
2018-11-05T05:39:28.084Z,0
2018-11-05T05:41:31.858Z,0
2018-11-05T05:42:32.020Z,0
2018-11-05T05:43:32.473Z,0
2018-11-05T05:44:31.707Z,0
2018-11-05T05:45:31.909Z,0
2018-11-05T05:46:32.184Z,0
2018-11-05T05:47:32.326Z,0
2018-11-05T05:48:33.564Z,0
2018-11-05T05:49:31.597Z,0
2018-11-05T05:50:53.614Z,0
2018-11-05T05:51:53.854Z,0
2018-11-05T05:52:53.298Z,0
2018-11-05T05:53:53.552Z,0
2018-11-05T05:54:53.840Z,0
2018-11-05T05:55:53.054Z,0
2018-11-05T05:56:53.177Z,0
2018-11-05T05:57:53.357Z,0
2018-11-05T05:58:53.698Z,0
2018-11-05T06:00:14.026Z,0
2018-11-05T06:01:14.236Z,0
2018-11-05T06:02:14.531Z,0
2018-11-05T06:03:14.887Z,0
2018-11-05T06:04:14.268Z,0
2018-11-05T06:05:14.675Z,0
2018-11-05T06:06:15.400Z,0
2018-11-05T06:07:14.817Z,0
2018-11-05T06:08:35.986Z,0
2018-11-05T06:09:36.290Z,0
2018-11-05T06:10:36.818Z,0
2018-11-05T06:11:36.201Z,0
2018-11-05T06:12:36.571Z,0
2018-11-05T06:13:36.959Z,0
2018-11-05T06:14:36.029Z,0
2018-11-05T06:15:36.391Z,0
2018-11-05T06:16:36.795Z,0
2018-11-05T06:18:18.020Z,0
2018-11-05T06:19:18.213Z,0
2018-11-05T06:20:18.548Z,0
2018-11-05T06:21:19.032Z,0
2018-11-05T06:22:18.313Z,0
2018-11-05T06:23:19.877Z,0
2018-11-05T06:24:18.193Z,0
2018-11-05T06:25:18.831Z,0
2018-11-05T06:26:18.175Z,0
2018-11-05T06:27:18.561Z,0
2018-11-05T06:28:19.119Z,0
2018-11-05T06:29:18.645Z,1
2018-11-05T06:30:20.710Z,1
2018-11-05T06:31:19.091Z,1
2018-11-05T06:32:18.619Z,1
2018-11-05T06:33:20.768Z,1
2018-11-05T06:34:19.407Z,1
2018-11-05T06:35:18.988Z,1
2018-11-05T06:36:18.400Z,2
2018-11-05T06:37:18.683Z,2
2018-11-05T06:38:19.151Z,2
2018-11-05T06:39:39.520Z,2
2018-11-05T06:40:39.787Z,2
2018-11-05T06:42:01.147Z,3
2018-11-05T06:43:01.275Z,3
2018-11-05T06:45:04.796Z,3
2018-11-05T06:46:05.297Z,3
2018-11-05T06:47:31.743Z,4
2018-11-05T06:48:32.212Z,4
2018-11-05T06:49:32.660Z,4
2018-11-05T06:50:31.989Z,5
2018-11-05T06:51:32.532Z,5
2018-11-05T06:52:32.058Z,5
2018-11-05T06:53:32.416Z,5
2018-11-05T06:54:32.023Z,6
2018-11-05T06:55:34.179Z,6
2018-11-05T06:56:32.730Z,6
2018-11-05T06:57:32.144Z,6
2018-11-05T06:58:32.575Z,6
2018-11-05T06:59:31.846Z,6
2018-11-05T07:00:32.351Z,7
2018-11-05T07:01:31.739Z,7
2018-11-05T07:02:32.338Z,8
2018-11-05T07:03:31.992Z,8
2018-11-05T07:04:32.413Z,8
2018-11-05T07:05:31.724Z,8
2018-11-05T07:06:32.125Z,8
2018-11-05T07:07:32.724Z,8
2018-11-05T07:08:32.243Z,9
2018-11-05T07:09:32.642Z,9
2018-11-05T07:10:53.869Z,11
2018-11-05T07:11:54.399Z,12
2018-11-05T07:12:54.972Z,12
2018-11-05T07:14:15.634Z,13
2018-11-05T07:15:16.187Z,14
2018-11-05T07:16:15.691Z,14
2018-11-05T07:17:16.338Z,13
2018-11-05T07:18:15.758Z,14
2018-11-05T07:19:16.527Z,15
2018-11-05T07:20:16.102Z,15
2018-11-05T07:21:16.629Z,14
2018-11-05T07:22:16.099Z,14
2018-11-05T07:23:15.738Z,14
2018-11-05T07:24:16.272Z,15
2018-11-05T07:25:15.681Z,15
2018-11-05T07:26:16.093Z,15
2018-11-05T07:27:15.624Z,15
2018-11-05T07:28:16.023Z,15
2018-11-05T07:29:16.434Z,15
2018-11-05T07:30:15.910Z,16
2018-11-05T07:31:16.628Z,16
2018-11-05T07:32:16.352Z,15
2018-11-05T07:33:16.131Z,14
2018-11-05T07:34:37.401Z,14
2018-11-05T07:35:37.736Z,14
2018-11-05T07:36:37.446Z,13
2018-11-05T07:37:58.969Z,13
2018-11-05T07:38:59.597Z,12
2018-11-05T07:39:59.290Z,12
2018-11-05T07:40:59.811Z,13
2018-11-05T07:41:59.249Z,13
2018-11-05T07:42:59.664Z,12
2018-11-05T07:43:59.112Z,11
2018-11-05T07:44:59.531Z,12
2018-11-05T07:45:59.011Z,13
2018-11-05T07:46:59.293Z,14
2018-11-05T07:47:59.733Z,15
2018-11-05T07:49:20.619Z,14
2018-11-05T07:50:21.447Z,15
2018-11-05T07:51:21.217Z,16
2018-11-05T07:52:20.778Z,16
2018-11-05T07:53:21.304Z,16
2018-11-05T07:54:20.819Z,16
2018-11-05T07:55:21.306Z,17
2018-11-05T07:56:21.153Z,18
2018-11-05T07:57:20.891Z,17
2018-11-05T07:58:42.715Z,17
2018-11-05T07:59:43.299Z,16
2018-11-05T08:00:42.820Z,16
2018-11-05T08:01:43.202Z,17
2018-11-05T08:03:26.509Z,19
2018-11-05T08:04:26.771Z,20
2018-11-05T08:05:48.517Z,21
2018-11-05T08:06:49.137Z,22
2018-11-05T08:07:49.494Z,21
2018-11-05T08:08:48.991Z,21
2018-11-05T08:09:49.432Z,22
2018-11-05T08:10:49.084Z,23
2018-11-05T08:11:48.499Z,24
2018-11-05T08:13:10.245Z,25
2018-11-05T08:14:10.739Z,26
2018-11-05T08:15:10.166Z,28
2018-11-05T08:16:10.845Z,30
2018-11-05T08:17:52.949Z,28
2018-11-05T08:18:53.550Z,29
2018-11-05T08:19:53.231Z,29
2018-11-05T08:20:53.847Z,32
2018-11-05T08:22:14.717Z,35
2018-11-05T08:23:15.164Z,38
2018-11-05T08:24:36.889Z,42
2018-11-05T08:25:36.551Z,42
2018-11-05T08:26:35.967Z,41
2018-11-05T08:27:36.448Z,41
2018-11-05T08:28:36.778Z,40
2018-11-05T08:29:36.167Z,40
2018-11-05T08:30:36.765Z,40
2018-11-05T08:31:36.365Z,40
2018-11-05T08:32:36.772Z,41
2018-11-05T08:33:56.916Z,46
2018-11-05T08:34:57.480Z,50
2018-11-05T08:35:57.691Z,53
2018-11-05T08:36:57.031Z,55
2018-11-05T08:38:18.630Z,58
2018-11-05T08:39:19.124Z,60
2018-11-05T08:40:40.740Z,55
2018-11-05T08:41:41.274Z,57
2018-11-05T08:42:41.770Z,56
2018-11-05T08:44:04.084Z,61
2018-11-05T08:45:04.346Z,64
2018-11-05T08:46:04.817Z,67
2018-11-05T08:47:04.387Z,68
2018-11-05T08:48:25.782Z,69
2018-11-05T08:49:26.460Z,69
2018-11-05T08:50:26.175Z,71
2018-11-05T08:51:26.891Z,81
2018-11-05T08:52:26.025Z,82
2018-11-05T08:53:26.364Z,80
2018-11-05T08:54:32.723Z,75
2018-11-05T08:55:48.034Z,75
2018-11-05T08:57:32.165Z,82
2018-11-05T08:58:31.706Z,79
2018-11-05T08:59:32.523Z,76
2018-11-05T09:00:32.109Z,74
2018-11-05T09:01:31.989Z,75
2018-11-05T09:02:32.579Z,75
2018-11-05T09:03:32.138Z,76
2018-11-05T09:04:32.552Z,72
2018-11-05T09:05:32.288Z,71
2018-11-05T09:06:31.768Z,72
2018-11-05T09:07:32.066Z,71
2018-11-05T09:08:32.530Z,68
2018-11-05T09:09:32.315Z,65
2018-11-05T09:10:32.025Z,62
2018-11-05T09:11:31.892Z,61
2018-11-05T09:12:31.946Z,59
2018-11-05T09:13:32.464Z,59
2018-11-05T09:14:31.958Z,55
2018-11-05T09:15:32.746Z,58
2018-11-05T09:16:32.112Z,62
2018-11-05T09:17:33.666Z,52
2018-11-05T09:18:32.180Z,47
2018-11-05T09:19:31.800Z,49
2018-11-05T09:20:32.269Z,47
2018-11-05T09:21:31.748Z,46
2018-11-05T09:22:32.425Z,47
2018-11-05T09:23:32.447Z,53
2018-11-05T09:24:31.870Z,56
2018-11-05T09:25:32.399Z,53
2018-11-05T09:26:31.848Z,55
2018-11-05T09:27:32.329Z,58
2018-11-05T09:28:31.978Z,60
2018-11-05T09:29:32.218Z,65
2018-11-05T09:30:32.475Z,67
2018-11-05T09:32:16.429Z,58
2018-11-05T09:33:16.807Z,59
2018-11-05T09:34:17.299Z,59
2018-11-05T09:35:38.005Z,59
2018-11-05T09:36:38.363Z,53
2018-11-05T09:37:38.788Z,59
2018-11-05T09:38:38.124Z,61
2018-11-05T09:39:38.789Z,60
2018-11-05T09:40:38.185Z,58
2018-11-05T09:42:20.727Z,64
2018-11-05T09:43:21.143Z,64
2018-11-05T09:44:21.438Z,58
2018-11-05T09:45:20.775Z,56
2018-11-05T09:46:21.165Z,55
2018-11-05T09:47:21.631Z,53
2018-11-05T09:48:21.127Z,51
2018-11-05T09:49:21.396Z,52
2018-11-05T09:50:20.922Z,52
2018-11-05T09:51:43.469Z,49
2018-11-05T09:52:42.923Z,49
2018-11-05T09:53:43.252Z,48
2018-11-05T09:54:43.662Z,49
2018-11-05T09:55:43.258Z,50
2018-11-05T09:56:43.568Z,48
2018-11-05T09:57:42.977Z,47
2018-11-05T09:58:43.334Z,46
2018-11-05T10:00:03.819Z,48
2018-11-05T10:01:04.225Z,52
2018-11-05T10:02:03.729Z,57
2018-11-05T10:03:04.318Z,62
2018-11-05T10:04:03.928Z,68
2018-11-05T10:05:05.001Z,62
2018-11-05T10:06:04.799Z,59
2018-11-05T10:07:25.398Z,59
2018-11-05T10:08:25.932Z,57
2018-11-05T10:09:26.221Z,56
2018-11-05T10:10:25.943Z,55
2018-11-05T10:11:25.458Z,57
2018-11-05T10:12:26.035Z,57
2018-11-05T10:13:25.625Z,58
2018-11-05T10:14:25.868Z,56
2018-11-05T10:15:25.460Z,59
2018-11-05T10:16:25.842Z,60
2018-11-05T10:17:26.085Z,57
2018-11-05T10:18:25.391Z,53
2018-11-05T10:19:25.848Z,49
2018-11-05T10:20:26.200Z,49
2018-11-05T10:21:25.645Z,50
2018-11-05T10:23:08.102Z,49
2018-11-05T10:24:08.598Z,47
2018-11-05T10:25:08.427Z,47
2018-11-05T10:26:08.355Z,46
2018-11-05T10:27:50.890Z,47
2018-11-05T10:28:51.295Z,48
2018-11-05T10:29:51.871Z,51
2018-11-05T10:30:51.240Z,54
2018-11-05T10:31:51.847Z,53
2018-11-05T10:33:12.672Z,54
2018-11-05T10:35:39.515Z,58
2018-11-05T10:36:39.994Z,60
2018-11-05T10:37:40.401Z,60
2018-11-05T10:39:01.356Z,66
2018-11-05T10:40:23.183Z,66
2018-11-05T10:41:23.812Z,68
2018-11-05T10:42:44.512Z,66
2018-11-05T10:43:45.122Z,65
2018-11-05T10:44:44.394Z,64
2018-11-05T10:45:44.885Z,69
2018-11-05T10:46:44.629Z,73
2018-11-05T10:47:45.079Z,69
2018-11-05T10:48:44.497Z,64
2018-11-05T10:49:45.070Z,61
2018-11-05T10:50:44.637Z,57
2018-11-05T10:51:45.262Z,57
2018-11-05T10:52:44.852Z,58
2018-11-05T10:53:44.279Z,59
2018-11-05T10:54:45.327Z,55
2018-11-05T10:55:44.682Z,53
2018-11-05T10:56:45.059Z,51
2018-11-05T10:57:44.688Z,51
2018-11-05T10:58:45.099Z,51
2018-11-05T10:59:44.781Z,49
2018-11-05T11:00:45.946Z,46
2018-11-05T11:01:44.543Z,45
2018-11-05T11:02:46.140Z,47
2018-11-05T11:03:44.828Z,51
2018-11-05T11:04:45.235Z,51
2018-11-05T11:05:44.738Z,49
2018-11-05T11:07:06.284Z,48
2018-11-05T11:08:07.503Z,47
2018-11-05T11:09:07.224Z,47
2018-11-05T11:10:06.771Z,45
2018-11-05T11:11:07.195Z,42
2018-11-05T11:12:28.043Z,39
2018-11-05T11:13:28.302Z,38
2018-11-05T11:14:28.554Z,38
2018-11-05T11:15:29.177Z,41
2018-11-05T11:16:28.660Z,52
2018-11-05T11:17:28.196Z,58
2018-11-05T11:18:28.792Z,54
2018-11-05T11:19:28.017Z,56
2018-11-05T11:20:28.465Z,55
2018-11-05T11:21:28.806Z,51
2018-11-05T11:22:28.263Z,51
2018-11-05T11:23:28.789Z,50
2018-11-05T11:24:28.154Z,51
2018-11-05T11:25:28.617Z,56
2018-11-05T11:26:29.087Z,59
2018-11-05T11:27:28.671Z,59
2018-11-05T11:28:29.183Z,57
2018-11-05T11:29:28.965Z,57
2018-11-05T11:30:28.661Z,58
2018-11-05T11:31:29.054Z,60
2018-11-05T11:32:28.367Z,61
2018-11-05T11:33:29.036Z,63
2018-11-05T11:34:28.448Z,66
2018-11-05T11:35:29.105Z,64
2018-11-05T11:36:28.782Z,57
2018-11-05T11:37:28.440Z,58
2018-11-05T11:38:29.006Z,60
2018-11-05T11:39:28.686Z,61
2018-11-05T11:40:28.180Z,65
2018-11-05T11:41:50.077Z,66
2018-11-05T11:42:50.625Z,71
2018-11-05T11:43:50.263Z,71
2018-11-05T11:44:50.607Z,70
2018-11-05T11:46:32.457Z,69
2018-11-05T11:47:32.873Z,66
2018-11-05T11:48:33.242Z,65
2018-11-05T11:49:32.726Z,61
2018-11-05T11:50:33.300Z,57
2018-11-05T11:51:32.474Z,57
2018-11-05T11:52:32.721Z,51
2018-11-05T11:53:54.388Z,53
2018-11-05T11:54:54.871Z,53
2018-11-05T11:55:55.453Z,53
2018-11-05T11:56:55.062Z,54
2018-11-05T11:57:54.641Z,57
2018-11-05T11:59:37.566Z,65
2018-11-05T12:00:38.187Z,64
2018-11-05T12:01:37.595Z,63
2018-11-05T12:02:38.137Z,60
2018-11-05T12:03:37.742Z,57
2018-11-05T12:04:38.349Z,55
2018-11-05T12:05:37.805Z,57
2018-11-05T12:06:38.301Z,60
2018-11-05T12:07:37.855Z,59
2018-11-05T12:08:37.202Z,56
2018-11-05T12:09:37.811Z,53
2018-11-05T12:10:38.309Z,52
2018-11-05T12:11:37.865Z,49
2018-11-05T12:12:37.447Z,48
2018-11-05T12:13:37.829Z,49
2018-11-05T12:14:37.374Z,48
2018-11-05T12:15:38.197Z,52
2018-11-05T12:17:20.172Z,59
2018-11-05T12:18:20.589Z,57
2018-11-05T12:19:22.585Z,58
2018-11-05T12:20:20.046Z,56
2018-11-05T12:21:20.759Z,53
2018-11-05T12:22:20.133Z,50
2018-11-05T12:23:20.904Z,48
2018-11-05T12:24:20.752Z,47
2018-11-05T12:25:20.531Z,47
2018-11-05T12:26:20.075Z,48
2018-11-05T12:27:20.725Z,51
2018-11-05T12:28:20.071Z,48
2018-11-05T12:29:20.690Z,47
2018-11-05T12:30:20.412Z,45
2018-11-05T12:31:20.857Z,45
2018-11-05T12:32:20.286Z,46
2018-11-05T12:33:20.906Z,44
2018-11-05T12:34:20.576Z,41
2018-11-05T12:35:20.415Z,41
2018-11-05T12:36:20.085Z,42
2018-11-05T12:37:20.582Z,45
2018-11-05T12:38:20.090Z,49
2018-11-05T12:40:24.713Z,46
2018-11-05T12:41:25.386Z,46
2018-11-05T12:42:25.010Z,47
2018-11-05T12:44:08.076Z,48
2018-11-05T12:45:08.776Z,49
2018-11-05T12:46:08.277Z,50
2018-11-05T12:47:08.952Z,51
2018-11-05T12:48:08.362Z,52
2018-11-05T12:49:09.379Z,52
2018-11-05T12:50:29.890Z,54
2018-11-05T12:51:30.401Z,54
2018-11-05T12:52:30.752Z,54
2018-11-05T12:53:30.118Z,53
2018-11-05T12:54:30.580Z,58
2018-11-05T12:55:30.139Z,60
2018-11-05T12:56:31.594Z,62
2018-11-05T12:57:30.125Z,61
2018-11-05T12:58:30.717Z,60
2018-11-05T12:59:30.077Z,58
2018-11-05T13:00:30.484Z,56
2018-11-05T13:01:30.920Z,55
2018-11-05T13:02:30.490Z,54
2018-11-05T13:03:30.968Z,55
2018-11-05T13:04:51.785Z,60
2018-11-05T13:05:52.313Z,61
2018-11-05T13:06:52.032Z,61
2018-11-05T13:07:52.612Z,61
2018-11-05T13:08:52.655Z,62
2018-11-05T13:09:52.623Z,61
2018-11-05T13:10:53.326Z,61
2018-11-05T13:11:51.789Z,63
2018-11-05T13:12:53.252Z,60
2018-11-05T13:13:51.749Z,55
2018-11-05T13:15:56.800Z,51
2018-11-05T13:16:57.360Z,53
2018-11-05T13:17:56.866Z,52
2018-11-05T13:18:57.826Z,51
2018-11-05T13:19:57.204Z,52
2018-11-05T13:20:56.906Z,53
2018-11-05T13:21:57.317Z,53
2018-11-05T13:22:56.990Z,53
2018-11-05T13:23:56.750Z,56
2018-11-05T13:25:18.762Z,59
2018-11-05T13:26:19.417Z,60
2018-11-05T13:27:18.914Z,59
2018-11-05T13:28:40.880Z,56
2018-11-05T13:29:41.631Z,56
2018-11-05T13:30:41.271Z,56
2018-11-05T13:31:40.851Z,58
2018-11-05T13:32:43.180Z,63
2018-11-05T13:33:41.681Z,68
2018-11-05T13:34:41.191Z,71
2018-11-05T13:35:41.594Z,71
2018-11-05T13:36:41.385Z,70
2018-11-05T13:37:41.522Z,70
2018-11-05T13:38:41.917Z,69
2018-11-05T13:40:03.032Z,68
2018-11-05T13:41:03.632Z,67
2018-11-05T13:42:03.211Z,65
2018-11-05T13:43:03.366Z,65
2018-11-05T13:44:24.411Z,66
2018-11-05T13:45:27.211Z,67
2018-11-05T13:46:25.421Z,67
2018-11-05T13:47:25.018Z,67
2018-11-05T13:48:24.759Z,69
2018-11-05T13:49:27.022Z,71
2018-11-05T13:50:25.245Z,72
2018-11-05T13:52:07.699Z,71
2018-11-05T13:53:08.426Z,73
2018-11-05T13:54:29.853Z,76
2018-11-05T13:55:51.065Z,77
2018-11-05T13:56:51.826Z,76
2018-11-05T13:57:51.640Z,76
2018-11-05T13:58:51.317Z,75
2018-11-05T13:59:51.850Z,75
2018-11-05T14:00:51.404Z,74
2018-11-05T14:01:51.827Z,73
2018-11-05T14:02:51.498Z,72
2018-11-05T14:03:51.065Z,71
2018-11-05T14:04:51.474Z,70
2018-11-05T14:05:52.076Z,70
2018-11-05T14:06:51.406Z,69
2018-11-05T14:08:12.393Z,69
2018-11-05T14:09:12.970Z,68
2018-11-05T14:10:12.429Z,68
2018-11-05T14:11:12.820Z,68
2018-11-05T14:12:13.314Z,67
2018-11-05T14:13:12.844Z,67
2018-11-05T14:14:13.120Z,66
2018-11-05T14:15:12.600Z,65
2018-11-05T14:16:13.040Z,64
2018-11-05T14:17:12.975Z,63
2018-11-05T14:18:33.701Z,62
2018-11-05T14:19:56.605Z,61
2018-11-05T14:20:57.124Z,59
2018-11-05T14:22:17.703Z,57
2018-11-05T14:23:18.243Z,55
2018-11-05T14:24:17.889Z,55
2018-11-05T14:25:18.659Z,53
2018-11-05T14:26:18.363Z,52
2018-11-05T14:27:39.495Z,50
2018-11-05T14:28:40.326Z,48
2018-11-05T14:29:39.966Z,46
2018-11-05T14:30:39.409Z,45
2018-11-05T14:32:02.761Z,43
2018-11-05T14:33:03.590Z,42
2018-11-05T14:34:03.362Z,41
2018-11-05T14:35:02.899Z,39
2018-11-05T14:36:03.471Z,38
2018-11-05T14:37:03.168Z,37
2018-11-05T14:38:02.875Z,37
2018-11-05T14:39:02.903Z,36
2018-11-05T14:40:03.438Z,35
2018-11-05T14:41:02.876Z,34
2018-11-05T14:42:02.571Z,33
2018-11-05T14:43:03.312Z,32
2018-11-05T14:44:02.910Z,32
2018-11-05T14:45:03.326Z,31
2018-11-05T14:46:24.605Z,30
2018-11-05T14:47:23.798Z,29
2018-11-05T14:48:24.644Z,28
2018-11-05T14:49:24.127Z,28
2018-11-05T14:50:24.708Z,27
2018-11-05T14:51:24.272Z,27
2018-11-05T14:52:24.766Z,26
2018-11-05T14:53:24.403Z,26
2018-11-05T14:54:24.142Z,25
2018-11-05T14:55:46.049Z,26
2018-11-05T14:56:46.346Z,24
2018-11-05T14:58:08.255Z,24
2018-11-05T14:59:08.970Z,23
2018-11-05T15:00:30.011Z,23
2018-11-05T15:01:30.506Z,22
2018-11-05T15:02:30.234Z,22
2018-11-05T15:03:30.806Z,22
2018-11-05T15:04:30.390Z,21
2018-11-05T15:05:30.142Z,21
2018-11-05T15:06:30.914Z,20
2018-11-05T15:07:30.508Z,20
2018-11-05T15:08:30.031Z,19
2018-11-05T15:09:51.731Z,19
2018-11-05T15:10:52.115Z,19
2018-11-05T15:11:52.309Z,18
2018-11-05T15:12:52.032Z,18
2018-11-05T15:14:14.063Z,18
2018-11-05T15:15:57.295Z,17
2018-11-05T15:17:19.236Z,17
2018-11-05T15:18:19.880Z,16
2018-11-05T15:19:19.963Z,16
2018-11-05T15:20:20.294Z,15
2018-11-05T15:21:19.280Z,15
2018-11-05T15:22:19.771Z,14
2018-11-05T15:23:19.439Z,14
2018-11-05T15:24:41.459Z,13